sensor_id;sensor_type;location;lat;lon;timestamp;P1;durP1;ratioP1;P2;durP2;ratioP2
11342;SDS011;5726;42.160;24.746;2022-11-06T00:00:09;107.07;;;60.27;;
11342;SDS011;5726;42.160;24.746;2022-11-06T00:02:35;114.90;;;64.40;;
11342;SDS011;5726;42.160;24.746;2022-11-06T00:05:01;112.07;;;65.67;;
11342;SDS011;5726;42.160;24.746;2022-11-06T00:07:45;109.70;;;64.53;;
11342;SDS011;5726;42.160;24.746;2022-11-06T00:10:12;108.83;;;66.10;;
11342;SDS011;5726;42.160;24.746;2022-11-06T00:12:39;110.83;;;64.03;;
11342;SDS011;5726;42.160;24.746;2022-11-06T00:15:04;112.57;;;60.83;;
11342;SDS011;5726;42.160;24.746;2022-11-06T00:17:30;94.03;;;55.27;;
11342;SDS011;5726;42.160;24.746;2022-11-06T00:19:55;110.23;;;60.97;;
11342;SDS011;5726;42.160;24.746;2022-11-06T00:22:21;106.53;;;62.63;;
11342;SDS011;5726;42.160;24.746;2022-11-06T00:24:46;117.17;;;67.30;;
11342;SDS011;5726;42.160;24.746;2022-11-06T00:27:13;113.83;;;69.30;;
11342;SDS011;5726;42.160;24.746;2022-11-06T00:29:39;110.03;;;68.10;;
11342;SDS011;5726;42.160;24.746;2022-11-06T00:32:05;114.20;;;68.17;;
11342;SDS011;5726;42.160;24.746;2022-11-06T00:34:30;116.07;;;69.40;;
11342;SDS011;5726;42.160;24.746;2022-11-06T00:36:56;111.70;;;66.33;;
11342;SDS011;5726;42.160;24.746;2022-11-06T00:39:21;116.70;;;68.30;;
11342;SDS011;5726;42.160;24.746;2022-11-06T00:41:47;115.23;;;67.17;;
11342;SDS011;5726;42.160;24.746;2022-11-06T00:44:12;113.27;;;66.63;;
11342;SDS011;5726;42.160;24.746;2022-11-06T00:46:38;113.90;;;64.40;;
11342;SDS011;5726;42.160;24.746;2022-11-06T00:49:03;118.63;;;66.63;;
11342;SDS011;5726;42.160;24.746;2022-11-06T00:51:30;110.50;;;64.07;;
11342;SDS011;5726;42.160;24.746;2022-11-06T00:53:58;103.57;;;62.03;;
11342;SDS011;5726;42.160;24.746;2022-11-06T00:56:26;105.90;;;61.17;;
11342;SDS011;5726;42.160;24.746;2022-11-06T00:58:52;104.77;;;60.37;;
11342;SDS011;5726;42.160;24.746;2022-11-06T01:01:20;101.83;;;58.97;;
11342;SDS011;5726;42.160;24.746;2022-11-06T01:03:50;100.60;;;58.07;;
11342;SDS011;5726;42.160;24.746;2022-11-06T01:06:19;100.73;;;58.10;;
11342;SDS011;5726;42.160;24.746;2022-11-06T01:08:47;104.87;;;59.23;;
11342;SDS011;5726;42.160;24.746;2022-11-06T01:11:17;109.77;;;63.00;;
11342;SDS011;5726;42.160;24.746;2022-11-06T01:13:45;113.53;;;64.50;;
11342;SDS011;5726;42.160;24.746;2022-11-06T01:16:13;110.10;;;65.03;;
11342;SDS011;5726;42.160;24.746;2022-11-06T01:18:40;124.07;;;66.97;;
11342;SDS011;5726;42.160;24.746;2022-11-06T01:21:08;119.30;;;68.20;;
11342;SDS011;5726;42.160;24.746;2022-11-06T01:23:35;116.23;;;70.80;;
11342;SDS011;5726;42.160;24.746;2022-11-06T01:26:02;121.40;;;71.67;;
11342;SDS011;5726;42.160;24.746;2022-11-06T01:28:30;113.27;;;70.63;;
11342;SDS011;5726;42.160;24.746;2022-11-06T01:31:01;121.33;;;72.30;;
11342;SDS011;5726;42.160;24.746;2022-11-06T01:33:37;132.70;;;75.53;;
11342;SDS011;5726;42.160;24.746;2022-11-06T01:36:02;130.67;;;73.83;;
11342;SDS011;5726;42.160;24.746;2022-11-06T01:38:28;135.43;;;75.73;;
11342;SDS011;5726;42.160;24.746;2022-11-06T01:40:54;141.87;;;76.80;;
11342;SDS011;5726;42.160;24.746;2022-11-06T01:43:24;129.03;;;72.50;;
11342;SDS011;5726;42.160;24.746;2022-11-06T01:46:10;136.43;;;78.07;;
11342;SDS011;5726;42.160;24.746;2022-11-06T01:48:35;132.47;;;74.83;;
11342;SDS011;5726;42.160;24.746;2022-11-06T01:51:03;128.53;;;75.70;;
11342;SDS011;5726;42.160;24.746;2022-11-06T01:53:30;134.00;;;75.27;;
11342;SDS011;5726;42.160;24.746;2022-11-06T01:55:57;128.00;;;73.77;;
11342;SDS011;5726;42.160;24.746;2022-11-06T01:58:25;130.53;;;72.23;;
11342;SDS011;5726;42.160;24.746;2022-11-06T02:00:54;117.67;;;70.87;;
11342;SDS011;5726;42.160;24.746;2022-11-06T02:03:20;131.50;;;72.40;;
11342;SDS011;5726;42.160;24.746;2022-11-06T02:05:45;121.27;;;71.73;;
11342;SDS011;5726;42.160;24.746;2022-11-06T02:08:13;114.63;;;68.53;;
11342;SDS011;5726;42.160;24.746;2022-11-06T02:10:41;121.87;;;66.43;;
11342;SDS011;5726;42.160;24.746;2022-11-06T02:16:13;125.27;;;68.17;;
11342;SDS011;5726;42.160;24.746;2022-11-06T02:25:03;109.23;;;65.37;;
11342;SDS011;5726;42.160;24.746;2022-11-06T02:27:44;114.03;;;63.60;;
11342;SDS011;5726;42.160;24.746;2022-11-06T02:30:22;108.73;;;64.57;;
11342;SDS011;5726;42.160;24.746;2022-11-06T02:32:50;126.23;;;71.97;;
11342;SDS011;5726;42.160;24.746;2022-11-06T02:38:13;128.80;;;74.27;;
11342;SDS011;5726;42.160;24.746;2022-11-06T02:40:44;113.50;;;64.17;;
11342;SDS011;5726;42.160;24.746;2022-11-06T02:43:13;114.30;;;61.53;;
11342;SDS011;5726;42.160;24.746;2022-11-06T02:45:44;110.23;;;60.67;;
11342;SDS011;5726;42.160;24.746;2022-11-06T02:48:25;102.23;;;57.40;;
11342;SDS011;5726;42.160;24.746;2022-11-06T02:50:55;134.97;;;82.87;;
11342;SDS011;5726;42.160;24.746;2022-11-06T02:53:25;105.93;;;61.07;;
11342;SDS011;5726;42.160;24.746;2022-11-06T02:55:52;168.77;;;97.67;;
11342;SDS011;5726;42.160;24.746;2022-11-06T03:01:03;99.47;;;58.10;;
11342;SDS011;5726;42.160;24.746;2022-11-06T03:03:35;163.97;;;101.07;;
11342;SDS011;5726;42.160;24.746;2022-11-06T03:06:09;109.30;;;67.40;;
11342;SDS011;5726;42.160;24.746;2022-11-06T03:08:43;156.70;;;97.53;;
11342;SDS011;5726;42.160;24.746;2022-11-06T03:17:09;98.00;;;55.40;;
11342;SDS011;5726;42.160;24.746;2022-11-06T03:19:49;105.63;;;56.10;;
11342;SDS011;5726;42.160;24.746;2022-11-06T03:30:28;98.90;;;58.83;;
11342;SDS011;5726;42.160;24.746;2022-11-06T03:32:57;102.90;;;58.30;;
11342;SDS011;5726;42.160;24.746;2022-11-06T03:35:54;104.03;;;60.47;;
11342;SDS011;5726;42.160;24.746;2022-11-06T03:38:42;128.77;;;78.97;;
11342;SDS011;5726;42.160;24.746;2022-11-06T03:41:34;119.10;;;71.03;;
11342;SDS011;5726;42.160;24.746;2022-11-06T03:44:05;98.43;;;56.23;;
11342;SDS011;5726;42.160;24.746;2022-11-06T03:46:37;101.67;;;56.03;;
11342;SDS011;5726;42.160;24.746;2022-11-06T03:49:12;93.83;;;54.70;;
11342;SDS011;5726;42.160;24.746;2022-11-06T03:51:48;99.07;;;55.10;;
11342;SDS011;5726;42.160;24.746;2022-11-06T03:54:20;87.83;;;52.50;;
11342;SDS011;5726;42.160;24.746;2022-11-06T03:57:12;90.63;;;53.70;;
11342;SDS011;5726;42.160;24.746;2022-11-06T03:59:46;102.27;;;57.03;;
11342;SDS011;5726;42.160;24.746;2022-11-06T04:02:16;86.83;;;52.97;;
11342;SDS011;5726;42.160;24.746;2022-11-06T04:04:46;98.10;;;54.63;;
11342;SDS011;5726;42.160;24.746;2022-11-06T04:07:17;92.03;;;52.00;;
11342;SDS011;5726;42.160;24.746;2022-11-06T04:09:48;92.53;;;53.10;;
11342;SDS011;5726;42.160;24.746;2022-11-06T04:12:39;87.70;;;53.77;;
11342;SDS011;5726;42.160;24.746;2022-11-06T04:15:30;96.70;;;55.13;;
11342;SDS011;5726;42.160;24.746;2022-11-06T04:17:59;101.37;;;57.77;;
11342;SDS011;5726;42.160;24.746;2022-11-06T04:20:26;107.97;;;61.83;;
11342;SDS011;5726;42.160;24.746;2022-11-06T04:23:24;114.33;;;62.43;;
11342;SDS011;5726;42.160;24.746;2022-11-06T04:29:06;129.63;;;67.13;;
11342;SDS011;5726;42.160;24.746;2022-11-06T04:39:59;105.27;;;61.10;;
11342;SDS011;5726;42.160;24.746;2022-11-06T04:48:05;105.30;;;61.10;;
11342;SDS011;5726;42.160;24.746;2022-11-06T04:50:33;105.50;;;59.43;;
11342;SDS011;5726;42.160;24.746;2022-11-06T04:53:03;112.70;;;58.17;;
11342;SDS011;5726;42.160;24.746;2022-11-06T04:55:30;103.43;;;59.43;;
11342;SDS011;5726;42.160;24.746;2022-11-06T04:57:56;96.03;;;55.33;;
11342;SDS011;5726;42.160;24.746;2022-11-06T05:00:21;96.53;;;55.97;;
11342;SDS011;5726;42.160;24.746;2022-11-06T05:02:47;95.17;;;54.07;;
11342;SDS011;5726;42.160;24.746;2022-11-06T05:05:12;95.13;;;55.23;;
11342;SDS011;5726;42.160;24.746;2022-11-06T05:07:38;90.30;;;52.70;;
11342;SDS011;5726;42.160;24.746;2022-11-06T05:10:03;92.47;;;52.47;;
11342;SDS011;5726;42.160;24.746;2022-11-06T05:12:29;90.43;;;52.63;;
11342;SDS011;5726;42.160;24.746;2022-11-06T05:14:55;98.93;;;53.33;;
11342;SDS011;5726;42.160;24.746;2022-11-06T05:17:20;92.60;;;52.30;;
11342;SDS011;5726;42.160;24.746;2022-11-06T05:19:45;94.83;;;53.97;;
11342;SDS011;5726;42.160;24.746;2022-11-06T05:22:11;101.97;;;55.60;;
11342;SDS011;5726;42.160;24.746;2022-11-06T05:24:55;92.87;;;53.20;;
11342;SDS011;5726;42.160;24.746;2022-11-06T05:27:20;88.13;;;52.37;;
11342;SDS011;5726;42.160;24.746;2022-11-06T05:29:46;93.80;;;54.13;;
11342;SDS011;5726;42.160;24.746;2022-11-06T05:32:11;96.60;;;54.77;;
11342;SDS011;5726;42.160;24.746;2022-11-06T05:34:36;96.07;;;53.23;;
11342;SDS011;5726;42.160;24.746;2022-11-06T05:37:02;94.60;;;52.80;;
11342;SDS011;5726;42.160;24.746;2022-11-06T05:39:27;94.77;;;52.17;;
11342;SDS011;5726;42.160;24.746;2022-11-06T05:41:53;83.70;;;47.10;;
11342;SDS011;5726;42.160;24.746;2022-11-06T05:44:18;83.27;;;50.40;;
11342;SDS011;5726;42.160;24.746;2022-11-06T05:46:44;89.17;;;50.63;;
11342;SDS011;5726;42.160;24.746;2022-11-06T05:49:09;90.47;;;53.20;;
11342;SDS011;5726;42.160;24.746;2022-11-06T05:51:35;90.87;;;51.63;;
11342;SDS011;5726;42.160;24.746;2022-11-06T05:54:00;99.03;;;54.63;;
11342;SDS011;5726;42.160;24.746;2022-11-06T05:56:26;86.20;;;52.53;;
11342;SDS011;5726;42.160;24.746;2022-11-06T05:58:51;101.30;;;56.67;;
11342;SDS011;5726;42.160;24.746;2022-11-06T06:01:17;87.50;;;51.23;;
11342;SDS011;5726;42.160;24.746;2022-11-06T06:03:43;76.67;;;45.53;;
11342;SDS011;5726;42.160;24.746;2022-11-06T06:06:08;80.53;;;48.17;;
11342;SDS011;5726;42.160;24.746;2022-11-06T06:08:33;73.47;;;46.73;;
11342;SDS011;5726;42.160;24.746;2022-11-06T06:10:59;84.10;;;48.67;;
11342;SDS011;5726;42.160;24.746;2022-11-06T06:13:24;86.73;;;50.37;;
11342;SDS011;5726;42.160;24.746;2022-11-06T06:15:50;84.27;;;48.97;;
11342;SDS011;5726;42.160;24.746;2022-11-06T06:18:15;71.93;;;46.50;;
11342;SDS011;5726;42.160;24.746;2022-11-06T06:20:40;86.57;;;48.47;;
11342;SDS011;5726;42.160;24.746;2022-11-06T06:23:06;76.93;;;47.40;;
11342;SDS011;5726;42.160;24.746;2022-11-06T06:25:31;77.77;;;46.00;;
11342;SDS011;5726;42.160;24.746;2022-11-06T06:27:57;81.70;;;46.67;;
11342;SDS011;5726;42.160;24.746;2022-11-06T06:30:23;85.77;;;47.43;;
11342;SDS011;5726;42.160;24.746;2022-11-06T06:32:49;78.60;;;49.20;;
11342;SDS011;5726;42.160;24.746;2022-11-06T06:35:15;79.90;;;47.23;;
11342;SDS011;5726;42.160;24.746;2022-11-06T06:37:42;77.63;;;47.93;;
11342;SDS011;5726;42.160;24.746;2022-11-06T06:40:17;77.33;;;46.67;;
11342;SDS011;5726;42.160;24.746;2022-11-06T06:42:43;87.90;;;48.30;;
11342;SDS011;5726;42.160;24.746;2022-11-06T06:45:08;80.20;;;46.47;;
11342;SDS011;5726;42.160;24.746;2022-11-06T06:47:34;78.70;;;47.50;;
11342;SDS011;5726;42.160;24.746;2022-11-06T06:49:59;76.43;;;47.73;;
11342;SDS011;5726;42.160;24.746;2022-11-06T06:52:25;79.30;;;47.63;;
11342;SDS011;5726;42.160;24.746;2022-11-06T06:54:50;84.43;;;47.67;;
11342;SDS011;5726;42.160;24.746;2022-11-06T06:57:15;77.83;;;46.90;;
11342;SDS011;5726;42.160;24.746;2022-11-06T06:59:41;75.40;;;46.87;;
11342;SDS011;5726;42.160;24.746;2022-11-06T07:02:07;79.03;;;45.77;;
11342;SDS011;5726;42.160;24.746;2022-11-06T07:04:33;77.17;;;46.07;;
11342;SDS011;5726;42.160;24.746;2022-11-06T07:06:58;60.67;;;36.57;;
11342;SDS011;5726;42.160;24.746;2022-11-06T07:09:24;65.67;;;40.37;;
11342;SDS011;5726;42.160;24.746;2022-11-06T07:11:49;72.50;;;41.40;;
11342;SDS011;5726;42.160;24.746;2022-11-06T07:14:15;64.90;;;38.60;;
11342;SDS011;5726;42.160;24.746;2022-11-06T07:16:40;76.87;;;41.10;;
11342;SDS011;5726;42.160;24.746;2022-11-06T07:19:06;73.57;;;44.17;;
11342;SDS011;5726;42.160;24.746;2022-11-06T07:21:31;78.03;;;46.80;;
11342;SDS011;5726;42.160;24.746;2022-11-06T07:23:56;81.77;;;48.00;;
11342;SDS011;5726;42.160;24.746;2022-11-06T07:26:22;83.07;;;46.17;;
11342;SDS011;5726;42.160;24.746;2022-11-06T07:28:47;85.87;;;48.80;;
11342;SDS011;5726;42.160;24.746;2022-11-06T07:31:13;88.60;;;47.50;;
11342;SDS011;5726;42.160;24.746;2022-11-06T07:33:38;81.40;;;48.60;;
11342;SDS011;5726;42.160;24.746;2022-11-06T07:36:05;142.30;;;70.30;;
11342;SDS011;5726;42.160;24.746;2022-11-06T07:38:33;392.80;;;175.33;;
11342;SDS011;5726;42.160;24.746;2022-11-06T07:41:03;475.70;;;208.27;;
11342;SDS011;5726;42.160;24.746;2022-11-06T07:43:29;223.13;;;103.03;;
11342;SDS011;5726;42.160;24.746;2022-11-06T07:46:01;98.93;;;51.63;;
11342;SDS011;5726;42.160;24.746;2022-11-06T07:48:28;212.53;;;100.20;;
11342;SDS011;5726;42.160;24.746;2022-11-06T07:50:55;685.30;;;310.47;;
11342;SDS011;5726;42.160;24.746;2022-11-06T07:53:20;369.93;;;163.93;;
11342;SDS011;5726;42.160;24.746;2022-11-06T07:55:53;92.63;;;50.33;;
11342;SDS011;5726;42.160;24.746;2022-11-06T07:58:20;81.33;;;46.97;;
11342;SDS011;5726;42.160;24.746;2022-11-06T08:00:50;67.37;;;39.60;;
11342;SDS011;5726;42.160;24.746;2022-11-06T08:03:17;68.13;;;40.00;;
11342;SDS011;5726;42.160;24.746;2022-11-06T08:05:43;78.63;;;41.67;;
11342;SDS011;5726;42.160;24.746;2022-11-06T08:08:09;65.43;;;39.50;;
11342;SDS011;5726;42.160;24.746;2022-11-06T08:10:35;61.13;;;37.10;;
11342;SDS011;5726;42.160;24.746;2022-11-06T08:13:07;68.07;;;37.80;;
11342;SDS011;5726;42.160;24.746;2022-11-06T08:15:32;61.73;;;37.67;;
11342;SDS011;5726;42.160;24.746;2022-11-06T08:17:58;58.10;;;36.57;;
11342;SDS011;5726;42.160;24.746;2022-11-06T08:20:24;66.90;;;36.53;;
11342;SDS011;5726;42.160;24.746;2022-11-06T08:22:50;57.43;;;37.00;;
11342;SDS011;5726;42.160;24.746;2022-11-06T08:25:15;65.43;;;34.63;;
11342;SDS011;5726;42.160;24.746;2022-11-06T08:27:41;52.27;;;33.20;;
11342;SDS011;5726;42.160;24.746;2022-11-06T08:30:06;63.10;;;34.37;;
11342;SDS011;5726;42.160;24.746;2022-11-06T08:32:32;51.57;;;31.80;;
11342;SDS011;5726;42.160;24.746;2022-11-06T08:34:57;59.77;;;32.73;;
11342;SDS011;5726;42.160;24.746;2022-11-06T08:37:23;52.70;;;32.87;;
11342;SDS011;5726;42.160;24.746;2022-11-06T08:39:48;60.53;;;33.90;;
11342;SDS011;5726;42.160;24.746;2022-11-06T08:42:14;57.67;;;34.43;;
11342;SDS011;5726;42.160;24.746;2022-11-06T08:44:40;53.17;;;32.47;;
11342;SDS011;5726;42.160;24.746;2022-11-06T08:47:06;51.00;;;33.60;;
11342;SDS011;5726;42.160;24.746;2022-11-06T08:49:32;47.10;;;31.87;;
11342;SDS011;5726;42.160;24.746;2022-11-06T08:51:58;52.83;;;31.53;;
11342;SDS011;5726;42.160;24.746;2022-11-06T08:54:23;57.77;;;32.60;;
11342;SDS011;5726;42.160;24.746;2022-11-06T08:56:48;56.10;;;32.63;;
11342;SDS011;5726;42.160;24.746;2022-11-06T08:59:14;50.40;;;30.33;;
11342;SDS011;5726;42.160;24.746;2022-11-06T09:01:40;47.70;;;30.53;;
11342;SDS011;5726;42.160;24.746;2022-11-06T09:04:05;52.60;;;25.93;;
11342;SDS011;5726;42.160;24.746;2022-11-06T09:06:32;42.23;;;24.87;;
11342;SDS011;5726;42.160;24.746;2022-11-06T09:08:57;42.37;;;23.93;;
11342;SDS011;5726;42.160;24.746;2022-11-06T09:11:23;56.20;;;30.47;;
11342;SDS011;5726;42.160;24.746;2022-11-06T09:13:48;41.77;;;25.93;;
11342;SDS011;5726;42.160;24.746;2022-11-06T09:16:14;42.77;;;25.20;;
11342;SDS011;5726;42.160;24.746;2022-11-06T09:18:39;45.87;;;28.17;;
11342;SDS011;5726;42.160;24.746;2022-11-06T09:21:05;50.97;;;28.60;;
11342;SDS011;5726;42.160;24.746;2022-11-06T09:23:30;49.37;;;29.23;;
11342;SDS011;5726;42.160;24.746;2022-11-06T09:25:56;48.40;;;27.63;;
11342;SDS011;5726;42.160;24.746;2022-11-06T09:28:22;46.57;;;27.10;;
11342;SDS011;5726;42.160;24.746;2022-11-06T09:30:47;57.50;;;30.53;;
11342;SDS011;5726;42.160;24.746;2022-11-06T09:33:13;49.07;;;28.97;;
11342;SDS011;5726;42.160;24.746;2022-11-06T09:35:38;50.50;;;30.67;;
11342;SDS011;5726;42.160;24.746;2022-11-06T09:38:11;58.77;;;34.43;;
11342;SDS011;5726;42.160;24.746;2022-11-06T09:40:46;62.60;;;37.77;;
11342;SDS011;5726;42.160;24.746;2022-11-06T09:45:50;64.30;;;41.23;;
11342;SDS011;5726;42.160;24.746;2022-11-06T09:53:58;66.93;;;38.60;;
11342;SDS011;5726;42.160;24.746;2022-11-06T09:56:28;61.50;;;39.37;;
11342;SDS011;5726;42.160;24.746;2022-11-06T09:58:58;62.17;;;39.83;;
11342;SDS011;5726;42.160;24.746;2022-11-06T10:01:31;75.20;;;41.80;;
11342;SDS011;5726;42.160;24.746;2022-11-06T10:04:02;64.23;;;41.60;;
11342;SDS011;5726;42.160;24.746;2022-11-06T10:06:28;74.30;;;42.20;;
11342;SDS011;5726;42.160;24.746;2022-11-06T10:08:56;61.07;;;39.60;;
11342;SDS011;5726;42.160;24.746;2022-11-06T10:22:16;59.90;;;36.57;;
11342;SDS011;5726;42.160;24.746;2022-11-06T10:24:53;56.23;;;34.80;;
11342;SDS011;5726;42.160;24.746;2022-11-06T10:27:41;57.17;;;35.33;;
11342;SDS011;5726;42.160;24.746;2022-11-06T10:30:32;59.03;;;38.13;;
11342;SDS011;5726;42.160;24.746;2022-11-06T10:38:25;57.80;;;39.40;;
11342;SDS011;5726;42.160;24.746;2022-11-06T10:40:52;67.13;;;39.73;;
11342;SDS011;5726;42.160;24.746;2022-11-06T10:43:28;61.10;;;38.60;;
11342;SDS011;5726;42.160;24.746;2022-11-06T10:46:00;59.83;;;38.00;;
11342;SDS011;5726;42.160;24.746;2022-11-06T10:48:37;62.43;;;38.13;;
11342;SDS011;5726;42.160;24.746;2022-11-06T10:59:42;68.97;;;41.70;;
11342;SDS011;5726;42.160;24.746;2022-11-06T11:05:17;60.27;;;38.10;;
11342;SDS011;5726;42.160;24.746;2022-11-06T11:07:45;61.33;;;37.87;;
11342;SDS011;5726;42.160;24.746;2022-11-06T11:12:47;52.43;;;36.27;;
11342;SDS011;5726;42.160;24.746;2022-11-06T11:15:18;63.13;;;36.60;;
11342;SDS011;5726;42.160;24.746;2022-11-06T11:20:33;58.90;;;34.70;;
11342;SDS011;5726;42.160;24.746;2022-11-06T11:23:04;51.97;;;33.90;;
11342;SDS011;5726;42.160;24.746;2022-11-06T11:25:29;53.83;;;33.70;;
11342;SDS011;5726;42.160;24.746;2022-11-06T11:27:54;58.37;;;36.53;;
11342;SDS011;5726;42.160;24.746;2022-11-06T11:30:21;55.27;;;33.97;;
11342;SDS011;5726;42.160;24.746;2022-11-06T11:32:50;52.50;;;32.43;;
11342;SDS011;5726;42.160;24.746;2022-11-06T11:35:18;46.93;;;32.10;;
11342;SDS011;5726;42.160;24.746;2022-11-06T11:37:50;49.00;;;30.77;;
11342;SDS011;5726;42.160;24.746;2022-11-06T11:43:18;52.23;;;33.67;;
11342;SDS011;5726;42.160;24.746;2022-11-06T11:48:40;50.20;;;32.13;;
11342;SDS011;5726;42.160;24.746;2022-11-06T11:54:22;51.80;;;33.67;;
11342;SDS011;5726;42.160;24.746;2022-11-06T11:59:28;56.43;;;34.60;;
11342;SDS011;5726;42.160;24.746;2022-11-06T12:05:05;54.73;;;36.10;;
11342;SDS011;5726;42.160;24.746;2022-11-06T12:07:36;65.30;;;36.53;;
11342;SDS011;5726;42.160;24.746;2022-11-06T12:10:50;57.93;;;35.77;;
11342;SDS011;5726;42.160;24.746;2022-11-06T12:13:02;53.67;;;35.70;;
11342;SDS011;5726;42.160;24.746;2022-11-06T12:18:15;57.90;;;35.87;;
11342;SDS011;5726;42.160;24.746;2022-11-06T12:23:23;58.20;;;35.90;;
11342;SDS011;5726;42.160;24.746;2022-11-06T12:26:12;52.57;;;36.57;;
11342;SDS011;5726;42.160;24.746;2022-11-06T12:28:39;61.87;;;37.03;;
11342;SDS011;5726;42.160;24.746;2022-11-06T12:31:11;60.07;;;38.03;;
11342;SDS011;5726;42.160;24.746;2022-11-06T12:33:58;57.50;;;37.03;;
11342;SDS011;5726;42.160;24.746;2022-11-06T12:36:28;58.27;;;36.87;;
11342;SDS011;5726;42.160;24.746;2022-11-06T12:39:02;60.77;;;37.53;;
11342;SDS011;5726;42.160;24.746;2022-11-06T12:41:31;61.43;;;36.20;;
11342;SDS011;5726;42.160;24.746;2022-11-06T12:44:01;53.73;;;36.00;;
11342;SDS011;5726;42.160;24.746;2022-11-06T12:53:07;57.37;;;34.83;;
11342;SDS011;5726;42.160;24.746;2022-11-06T12:55:28;58.30;;;34.67;;
11342;SDS011;5726;42.160;24.746;2022-11-06T13:09:56;50.27;;;32.37;;
11342;SDS011;5726;42.160;24.746;2022-11-06T13:15:06;49.10;;;33.23;;
11342;SDS011;5726;42.160;24.746;2022-11-06T13:22:41;56.13;;;33.87;;
11342;SDS011;5726;42.160;24.746;2022-11-06T13:30:24;52.23;;;32.87;;
11342;SDS011;5726;42.160;24.746;2022-11-06T13:33:04;50.00;;;33.20;;
11342;SDS011;5726;42.160;24.746;2022-11-06T13:35:36;49.73;;;31.27;;
11342;SDS011;5726;42.160;24.746;2022-11-06T13:38:05;48.83;;;30.10;;
11342;SDS011;5726;42.160;24.746;2022-11-06T13:40:34;47.73;;;32.20;;
11342;SDS011;5726;42.160;24.746;2022-11-06T13:45:45;48.67;;;32.47;;
11342;SDS011;5726;42.160;24.746;2022-11-06T13:53:43;50.07;;;32.10;;
11342;SDS011;5726;42.160;24.746;2022-11-06T14:07:32;47.33;;;31.07;;
11342;SDS011;5726;42.160;24.746;2022-11-06T14:09:59;45.07;;;29.50;;
11342;SDS011;5726;42.160;24.746;2022-11-06T14:12:25;48.70;;;30.60;;
11342;SDS011;5726;42.160;24.746;2022-11-06T14:14:52;44.63;;;28.37;;
11342;SDS011;5726;42.160;24.746;2022-11-06T14:17:37;49.37;;;27.80;;
11342;SDS011;5726;42.160;24.746;2022-11-06T14:20:05;46.00;;;29.37;;
11342;SDS011;5726;42.160;24.746;2022-11-06T14:22:50;45.93;;;28.77;;
11342;SDS011;5726;42.160;24.746;2022-11-06T14:30:40;50.57;;;29.77;;
11342;SDS011;5726;42.160;24.746;2022-11-06T14:33:11;45.60;;;29.30;;
11342;SDS011;5726;42.160;24.746;2022-11-06T14:38:48;47.60;;;29.93;;
11342;SDS011;5726;42.160;24.746;2022-11-06T14:43:58;51.27;;;32.40;;
11342;SDS011;5726;42.160;24.746;2022-11-06T14:46:25;46.43;;;30.60;;
11342;SDS011;5726;42.160;24.746;2022-11-06T14:48:54;46.17;;;30.80;;
11342;SDS011;5726;42.160;24.746;2022-11-06T14:51:32;51.47;;;31.67;;
11342;SDS011;5726;42.160;24.746;2022-11-06T14:53:58;49.80;;;32.17;;
11342;SDS011;5726;42.160;24.746;2022-11-06T14:56:31;59.40;;;34.57;;
11342;SDS011;5726;42.160;24.746;2022-11-06T14:59:03;61.27;;;40.13;;
11342;SDS011;5726;42.160;24.746;2022-11-06T15:01:36;66.77;;;38.63;;
11342;SDS011;5726;42.160;24.746;2022-11-06T15:04:02;58.80;;;38.70;;
11342;SDS011;5726;42.160;24.746;2022-11-06T15:08:57;59.77;;;39.27;;
11342;SDS011;5726;42.160;24.746;2022-11-06T15:13:52;64.97;;;41.20;;
11342;SDS011;5726;42.160;24.746;2022-11-06T15:16:18;65.87;;;42.43;;
11342;SDS011;5726;42.160;24.746;2022-11-06T15:18:45;66.50;;;42.40;;
11342;SDS011;5726;42.160;24.746;2022-11-06T15:21:14;68.73;;;43.60;;
11342;SDS011;5726;42.160;24.746;2022-11-06T15:31:46;72.27;;;46.00;;
11342;SDS011;5726;42.160;24.746;2022-11-06T15:34:15;77.47;;;46.23;;
11342;SDS011;5726;42.160;24.746;2022-11-06T15:37:09;71.70;;;45.63;;
11342;SDS011;5726;42.160;24.746;2022-11-06T15:39:39;72.03;;;46.13;;
11342;SDS011;5726;42.160;24.746;2022-11-06T15:42:17;79.43;;;48.73;;
11342;SDS011;5726;42.160;24.746;2022-11-06T15:44:46;73.10;;;45.67;;
11342;SDS011;5726;42.160;24.746;2022-11-06T15:47:22;72.33;;;46.97;;
11342;SDS011;5726;42.160;24.746;2022-11-06T15:52:41;66.47;;;43.77;;
11342;SDS011;5726;42.160;24.746;2022-11-06T15:58:04;70.20;;;43.17;;
11342;SDS011;5726;42.160;24.746;2022-11-06T16:00:34;71.13;;;44.60;;
11342;SDS011;5726;42.160;24.746;2022-11-06T16:03:02;69.07;;;42.27;;
11342;SDS011;5726;42.160;24.746;2022-11-06T16:05:30;59.77;;;39.43;;
11342;SDS011;5726;42.160;24.746;2022-11-06T16:07:59;67.77;;;41.73;;
11342;SDS011;5726;42.160;24.746;2022-11-06T16:10:25;63.93;;;39.97;;
11342;SDS011;5726;42.160;24.746;2022-11-06T16:12:51;63.90;;;40.63;;
11342;SDS011;5726;42.160;24.746;2022-11-06T16:18:08;62.07;;;41.03;;
11342;SDS011;5726;42.160;24.746;2022-11-06T16:20:40;74.87;;;45.63;;
11342;SDS011;5726;42.160;24.746;2022-11-06T16:23:09;69.70;;;40.77;;
11342;SDS011;5726;42.160;24.746;2022-11-06T16:25:38;73.80;;;47.73;;
11342;SDS011;5726;42.160;24.746;2022-11-06T16:28:03;75.03;;;46.47;;
11342;SDS011;5726;42.160;24.746;2022-11-06T16:30:29;90.73;;;54.80;;
11342;SDS011;5726;42.160;24.746;2022-11-06T16:32:57;85.57;;;52.37;;
11342;SDS011;5726;42.160;24.746;2022-11-06T16:38:42;77.40;;;48.73;;
11342;SDS011;5726;42.160;24.746;2022-11-06T16:41:00;78.07;;;47.43;;
11342;SDS011;5726;42.160;24.746;2022-11-06T16:43:25;72.83;;;47.17;;
11342;SDS011;5726;42.160;24.746;2022-11-06T16:46:09;65.90;;;41.30;;
11342;SDS011;5726;42.160;24.746;2022-11-06T16:48:36;67.67;;;41.73;;
11342;SDS011;5726;42.160;24.746;2022-11-06T16:51:48;64.53;;;39.13;;
11342;SDS011;5726;42.160;24.746;2022-11-06T16:53:57;59.33;;;37.43;;
11342;SDS011;5726;42.160;24.746;2022-11-06T16:56:30;57.23;;;37.30;;
11342;SDS011;5726;42.160;24.746;2022-11-06T16:59:07;64.73;;;40.53;;
11342;SDS011;5726;42.160;24.746;2022-11-06T17:01:40;60.13;;;39.43;;
11342;SDS011;5726;42.160;24.746;2022-11-06T17:04:26;66.00;;;38.47;;
11342;SDS011;5726;42.160;24.746;2022-11-06T17:06:54;63.03;;;38.30;;
11342;SDS011;5726;42.160;24.746;2022-11-06T17:12:08;70.40;;;43.37;;
11342;SDS011;5726;42.160;24.746;2022-11-06T17:14:34;81.23;;;43.97;;
11342;SDS011;5726;42.160;24.746;2022-11-06T17:17:00;62.07;;;43.20;;
11342;SDS011;5726;42.160;24.746;2022-11-06T17:19:27;65.03;;;41.77;;
11342;SDS011;5726;42.160;24.746;2022-11-06T17:21:53;71.13;;;42.03;;
11342;SDS011;5726;42.160;24.746;2022-11-06T17:24:19;63.83;;;41.67;;
11342;SDS011;5726;42.160;24.746;2022-11-06T17:26:49;72.57;;;44.33;;
11342;SDS011;5726;42.160;24.746;2022-11-06T17:29:17;199.23;;;130.97;;
11342;SDS011;5726;42.160;24.746;2022-11-06T17:31:42;274.53;;;179.70;;
11342;SDS011;5726;42.160;24.746;2022-11-06T17:34:08;80.20;;;50.47;;
11342;SDS011;5726;42.160;24.746;2022-11-06T17:36:34;67.83;;;42.57;;
11342;SDS011;5726;42.160;24.746;2022-11-06T17:39:02;67.33;;;43.17;;
11342;SDS011;5726;42.160;24.746;2022-11-06T17:41:28;71.63;;;44.43;;
11342;SDS011;5726;42.160;24.746;2022-11-06T17:44:00;71.67;;;46.37;;
11342;SDS011;5726;42.160;24.746;2022-11-06T17:46:41;67.23;;;42.23;;